Time;durP1;ratioP1;P1;durP2;ratioP2;P2;SDS_P1;SDS_P2;PMS_P1;PMS_P2;Temp;Humidity;BMP_temperature;BMP_pressure;BME280_temperature;BME280_humidity;BME280_pressure;Samples;Min_cycle;Max_cycle;Signal;HPM_P1;HPM_P2
2021/12/20 06:00:29;;;;;;;18.10;14.80;;;6.00;97.20;;;;;;1707662;28;20557;-71
2021/12/20 06:01:19;;;;;;;17.27;15.18;;;6.00;97.20;;;;;;1707932;29;20237;-71
2021/12/20 06:02:11;;;;;;;19.10;15.13;;;6.00;97.20;;;;;;1707870;29;20198;-72
2021/12/20 06:03:02;;;;;;;20.20;15.30;;;6.00;97.20;;;;;;1707962;29;20692;-71
2021/12/20 06:03:54;;;;;;;19.57;15.47;;;6.00;97.20;;;;;;1707896;29;20678;-72
2021/12/20 06:04:50;;;;;;;18.83;15.07;;;6.00;97.20;;;;;;1707767;29;20214;-71
2021/12/20 06:05:42;;;;;;;18.48;15.07;;;6.00;97.20;;;;;;1707891;29;20610;-72
2021/12/20 06:06:33;;;;;;;17.75;15.10;;;6.00;97.20;;;;;;1708374;28;20195;-71
2021/12/20 06:07:25;;;;;;;20.27;15.67;;;6.00;97.20;;;;;;1707962;29;20285;-71
2021/12/20 06:08:15;;;;;;;19.40;14.55;;;6.00;97.20;;;;;;1707939;28;20666;-71
2021/12/20 06:09:07;;;;;;;19.03;15.93;;;6.00;97.20;;;;;;1707592;29;20608;-72
2021/12/20 06:09:58;;;;;;;20.73;15.93;;;6.00;97.20;;;;;;1707915;29;20578;-71
2021/12/20 06:10:50;;;;;;;18.60;15.17;;;6.00;97.20;;;;;;1707861;28;20225;-72
2021/12/20 06:11:41;;;;;;;18.48;15.35;;;6.00;97.20;;;;;;1707825;29;20308;-71
2021/12/20 06:12:33;;;;;;;18.10;14.23;;;6.10;97.20;;;;;;1707781;29;20230;-71
2021/12/20 06:13:23;;;;;;;20.63;16.58;;;6.10;97.20;;;;;;1707937;29;20442;-72
2021/12/20 06:14:16;;;;;;;18.40;15.47;;;6.10;97.20;;;;;;1707883;29;20208;-72
2021/12/20 06:15:07;;;;;;;18.92;15.45;;;6.10;97.20;;;;;;1707827;29;20214;-72
2021/12/20 06:16:00;;;;;;;19.75;15.50;;;6.10;97.20;;;;;;1707951;29;20212;-72
2021/12/20 06:16:51;;;;;;;21.95;16.00;;;6.10;97.20;;;;;;1707810;29;20243;-72
2021/12/20 06:17:43;;;;;;;17.70;15.00;;;6.10;97.20;;;;;;1707922;29;20210;-71
2021/12/20 06:18:33;;;;;;;19.20;15.13;;;6.10;97.20;;;;;;1707768;28;20674;-72
2021/12/20 06:19:26;;;;;;;18.50;15.07;;;6.10;97.20;;;;;;1707556;29;20545;-72
2021/12/20 06:20:16;;;;;;;18.25;15.00;;;6.00;97.20;;;;;;1707586;29;20203;-71
2021/12/20 06:21:08;;;;;;;18.43;15.23;;;6.00;97.20;;;;;;1708049;28;20209;-72
2021/12/20 06:21:59;;;;;;;19.95;15.13;;;6.00;97.20;;;;;;1714518;28;20201;-71
2021/12/20 06:22:51;;;;;;;16.38;13.23;;;6.00;97.20;;;;;;1714440;28;20202;-71
2021/12/20 06:23:42;;;;;;;17.50;13.85;;;6.00;97.20;;;;;;1714471;28;20205;-71
2021/12/20 06:24:34;;;;;;;16.87;14.40;;;6.00;97.20;;;;;;1714427;28;20209;-72
2021/12/20 06:25:26;;;;;;;18.23;14.75;;;6.00;97.20;;;;;;1714329;28;20209;-72
2021/12/20 06:26:18;;;;;;;18.63;14.88;;;6.00;97.20;;;;;;1714443;28;20204;-72
2021/12/20 06:27:08;;;;;;;16.70;14.70;;;6.00;97.20;;;;;;1714337;28;20214;-71
2021/12/20 06:28:00;;;;;;;17.60;14.63;;;6.00;97.20;;;;;;1714410;28;20289;-72
2021/12/20 06:28:52;;;;;;;16.95;14.80;;;6.00;97.20;;;;;;1714129;28;20696;-71
2021/12/20 06:29:44;;;;;;;17.05;14.65;;;6.00;97.20;;;;;;1714382;28;20257;-71
2021/12/20 06:30:34;;;;;;;19.13;15.05;;;6.00;97.20;;;;;;1714252;28;20272;-72
2021/12/20 06:31:27;;;;;;;18.27;14.50;;;6.10;97.20;;;;;;1714480;28;20198;-71
2021/12/20 06:32:18;;;;;;;18.55;14.80;;;6.00;97.20;;;;;;1714364;28;20438;-72
2021/12/20 06:33:10;;;;;;;19.87;16.03;;;6.00;97.20;;;;;;1714400;28;20206;-71
2021/12/20 06:34:01;;;;;;;19.50;15.50;;;6.00;97.20;;;;;;1714325;28;20209;-72
2021/12/20 06:34:52;;;;;;;18.80;15.50;;;6.00;97.20;;;;;;1714183;28;20204;-70
2021/12/20 06:35:43;;;;;;;17.15;14.15;;;6.00;97.20;;;;;;1714407;28;20205;-70
2021/12/20 06:36:35;;;;;;;19.35;15.15;;;6.00;97.20;;;;;;1713935;28;20201;-71
2021/12/20 06:37:26;;;;;;;15.20;13.05;;;6.00;97.20;;;;;;1712454;28;20202;-73
2021/12/20 06:38:20;;;;;;;16.63;14.23;;;6.00;97.20;;;;;;1707846;29;20290;-71
2021/12/20 06:39:11;;;;;;;17.85;14.48;;;6.00;97.20;;;;;;1707481;29;20211;-72
2021/12/20 06:40:03;;;;;;;17.77;15.83;;;6.10;97.20;;;;;;1707318;28;20205;-71
2021/12/20 06:40:54;;;;;;;16.45;13.95;;;6.10;97.20;;;;;;1707556;29;20470;-72
2021/12/20 06:41:45;;;;;;;18.03;14.40;;;6.00;97.20;;;;;;1707682;29;20216;-72
2021/12/20 06:42:38;;;;;;;19.70;15.63;;;6.10;97.20;;;;;;1707253;29;20206;-71
2021/12/20 06:43:31;;;;;;;17.58;14.95;;;6.10;97.20;;;;;;1702573;29;20238;-70
2021/12/20 06:44:22;;;;;;;17.90;15.32;;;6.10;97.20;;;;;;1707316;29;20214;-70
2021/12/20 06:45:13;;;;;;;18.00;15.20;;;6.10;97.20;;;;;;1703733;29;20331;-72
2021/12/20 06:46:04;;;;;;;18.50;15.10;;;6.10;97.20;;;;;;1704063;29;20485;-71
2021/12/20 06:46:57;;;;;;;17.67;15.67;;;6.10;97.20;;;;;;1703149;29;20207;-71
2021/12/20 06:47:48;;;;;;;17.40;14.27;;;6.10;97.20;;;;;;1707421;29;20650;-72
2021/12/20 06:48:40;;;;;;;19.23;15.80;;;6.10;97.20;;;;;;1707226;29;20393;-71
2021/12/20 06:49:31;;;;;;;17.08;14.60;;;6.10;97.20;;;;;;1707371;29;20446;-71
2021/12/20 06:50:24;;;;;;;18.53;16.00;;;6.00;97.20;;;;;;1707441;28;20206;-71
2021/12/20 06:51:14;;;;;;;19.92;16.50;;;6.00;97.20;;;;;;1707564;29;20210;-71
2021/12/20 06:52:07;;;;;;;18.43;15.87;;;6.00;97.20;;;;;;1708675;28;20209;-72
2021/12/20 06:52:57;;;;;;;18.15;15.77;;;6.00;97.20;;;;;;1713730;28;20253;-71
2021/12/20 06:53:49;;;;;;;17.87;15.50;;;6.00;97.20;;;;;;1714132;28;20198;-71
2021/12/20 06:54:40;;;;;;;18.05;16.05;;;6.00;97.20;;;;;;1714106;28;20201;-72
2021/12/20 06:55:32;;;;;;;18.57;15.87;;;6.00;97.20;;;;;;1714195;28;20201;-72
2021/12/20 06:56:22;;;;;;;19.42;15.68;;;6.00;97.20;;;;;;1714181;28;20233;-70
2021/12/20 06:57:14;;;;;;;20.90;16.03;;;5.90;97.20;;;;;;1714074;28;20201;-72
2021/12/20 06:58:05;;;;;;;21.00;16.02;;;6.00;97.20;;;;;;1714151;28;20206;-72
2021/12/20 06:58:57;;;;;;;18.52;16.02;;;6.00;97.20;;;;;;1713836;28;20205;-71
2021/12/20 06:59:48;;;;;;;18.13;15.52;;;6.00;97.20;;;;;;1714625;28;20727;-71
2021/12/20 07:00:41;;;;;;;18.10;15.07;;;5.90;97.20;;;;;;1713921;28;20876;-71
2021/12/20 07:01:31;;;;;;;20.30;15.15;;;5.90;97.20;;;;;;1712901;28;20444;-72
2021/12/20 07:02:28;;;;;;;18.50;15.80;;;5.90;97.20;;;;;;1707796;29;20209;-70
2021/12/20 07:03:19;;;;;;;19.98;15.82;;;5.90;97.20;;;;;;1707545;29;20207;-72
2021/12/20 07:04:12;;;;;;;17.73;15.02;;;6.00;97.20;;;;;;1707999;29;20202;-71
2021/12/20 07:05:03;;;;;;;21.30;16.77;;;6.00;97.20;;;;;;1707499;28;20682;-70
2021/12/20 07:05:55;;;;;;;18.85;15.85;;;6.00;97.20;;;;;;1707488;29;20206;-71
2021/12/20 07:06:46;;;;;;;19.08;15.95;;;6.00;97.20;;;;;;1707661;29;20202;-72
2021/12/20 07:07:38;;;;;;;21.08;16.27;;;6.00;97.20;;;;;;1707598;29;20258;-71
2021/12/20 07:08:28;;;;;;;20.15;15.88;;;6.00;97.20;;;;;;1707684;29;20205;-71
2021/12/20 07:09:20;;;;;;;21.47;16.57;;;6.00;97.20;;;;;;1708339;28;20205;-72
2021/12/20 07:10:11;;;;;;;20.20;16.27;;;6.00;97.20;;;;;;1707248;29;20653;-72
2021/12/20 07:11:05;;;;;;;20.27;16.10;;;6.00;97.20;;;;;;1707468;29;20221;-72
2021/12/20 07:11:56;;;;;;;18.08;16.15;;;6.00;97.20;;;;;;1707667;29;20218;-72
2021/12/20 07:12:48;;;;;;;18.65;16.25;;;5.90;97.20;;;;;;1707496;29;20238;-71
2021/12/20 07:13:39;;;;;;;21.73;17.33;;;5.90;97.20;;;;;;1707766;28;20214;-71
2021/12/20 07:14:31;;;;;;;20.48;17.48;;;5.80;97.20;;;;;;1707652;29;20223;-71
2021/12/20 07:15:23;;;;;;;21.52;18.05;;;5.80;97.20;;;;;;1707705;29;20210;-72
2021/12/20 07:16:15;;;;;;;23.67;18.30;;;5.80;97.20;;;;;;1707370;29;20195;-72
2021/12/20 07:17:06;;;;;;;21.05;17.10;;;5.80;97.20;;;;;;1707263;29;20214;-72
2021/12/20 07:18:00;;;;;;;20.40;16.90;;;5.80;97.20;;;;;;1707270;29;20203;-71
2021/12/20 07:18:51;;;;;;;21.00;17.50;;;5.90;97.20;;;;;;1706413;29;20207;-72
2021/12/20 07:19:42;;;;;;;19.27;15.90;;;5.90;97.20;;;;;;1706619;29;20210;-73
2021/12/20 07:20:34;;;;;;;21.52;17.40;;;6.00;97.20;;;;;;1706831;29;20245;-72
2021/12/20 07:21:25;;;;;;;19.35;16.02;;;6.00;97.20;;;;;;1707422;29;20274;-71
2021/12/20 07:22:16;;;;;;;19.58;16.40;;;6.00;97.20;;;;;;1707342;29;20206;-72
2021/12/20 07:23:08;;;;;;;21.20;16.87;;;6.00;97.20;;;;;;1707356;29;20278;-71
2021/12/20 07:23:59;;;;;;;18.42;16.42;;;6.00;97.20;;;;;;1707236;29;20214;-72
2021/12/20 07:24:50;;;;;;;19.70;15.60;;;6.00;97.20;;;;;;1707260;29;20209;-71
2021/12/20 07:25:41;;;;;;;22.10;16.70;;;6.00;97.20;;;;;;1707362;28;20246;-72
2021/12/20 07:26:33;;;;;;;22.53;17.63;;;6.00;97.20;;;;;;1708254;28;20198;-72
2021/12/20 07:27:24;;;;;;;19.10;16.42;;;6.00;97.20;;;;;;1707370;29;20202;-72
2021/12/20 07:28:16;;;;;;;21.17;17.27;;;5.90;97.20;;;;;;1707189;28;20200;-71
2021/12/20 07:29:06;;;;;;;21.10;17.35;;;5.90;97.20;;;;;;1707082;29;20837;-72
2021/12/20 07:29:59;;;;;;;21.80;17.67;;;5.90;97.20;;;;;;1707225;28;20317;-73
2021/12/20 07:30:49;;;;;;;20.60;16.35;;;5.90;97.20;;;;;;1707079;28;20265;-73
2021/12/20 07:31:42;;;;;;;18.65;15.20;;;5.90;97.20;;;;;;1703564;29;20694;-72
2021/12/20 07:32:33;;;;;;;18.77;15.95;;;5.90;97.20;;;;;;1707074;29;20209;-72
2021/12/20 07:33:26;;;;;;;18.10;15.17;;;6.00;97.20;;;;;;1707314;29;20666;-73
2021/12/20 07:34:17;;;;;;;19.60;15.18;;;6.00;97.20;;;;;;1707173;29;20207;-72
2021/12/20 07:35:10;;;;;;;17.70;15.33;;;6.00;97.20;;;;;;1706975;29;20202;-72
2021/12/20 07:36:01;;;;;;;18.35;15.52;;;6.00;97.20;;;;;;1707356;29;20244;-72
2021/12/20 07:36:53;;;;;;;18.75;15.48;;;6.00;97.20;;;;;;1707118;28;20229;-72
2021/12/20 07:37:45;;;;;;;16.80;13.90;;;6.00;97.20;;;;;;1707312;28;20202;-72
2021/12/20 07:38:37;;;;;;;17.90;15.20;;;6.10;97.20;;;;;;1707321;29;20597;-71
2021/12/20 07:39:27;;;;;;;18.27;14.70;;;6.10;97.20;;;;;;1706790;28;20194;-71
2021/12/20 07:40:19;;;;;;;20.77;15.57;;;6.10;97.20;;;;;;1707192;29;20198;-73
2021/12/20 07:41:10;;;;;;;20.48;16.48;;;6.10;97.20;;;;;;1707234;29;20206;-72
2021/12/20 07:42:02;;;;;;;19.43;15.07;;;6.10;97.20;;;;;;1707180;28;20202;-72
2021/12/20 07:42:53;;;;;;;17.50;14.38;;;6.10;97.20;;;;;;1707184;29;20677;-71
2021/12/20 07:43:45;;;;;;;17.60;15.27;;;6.10;97.20;;;;;;1707392;29;20662;-71
2021/12/20 07:44:36;;;;;;;17.58;14.85;;;6.10;97.20;;;;;;1707319;28;20205;-72
2021/12/20 07:45:27;;;;;;;18.83;15.17;;;6.10;97.20;;;;;;1707584;29;20194;-72
2021/12/20 07:46:20;;;;;;;17.63;15.43;;;6.10;97.20;;;;;;1707271;29;20590;-72
2021/12/20 07:47:10;;;;;;;16.63;14.60;;;6.10;97.20;;;;;;1707299;29;20217;-71
2021/12/20 07:48:02;;;;;;;18.80;15.80;;;6.10;97.20;;;;;;1707289;29;20237;-72
2021/12/20 07:48:55;;;;;;;16.13;14.40;;;6.10;97.20;;;;;;1706914;28;20257;-71
2021/12/20 07:49:46;;;;;;;17.17;13.85;;;6.10;97.20;;;;;;1707193;29;20210;-71
2021/12/20 07:50:37;;;;;;;20.50;15.52;;;6.10;97.20;;;;;;1707116;29;20222;-71
2021/12/20 07:51:29;;;;;;;17.67;14.83;;;6.10;97.20;;;;;;1707285;28;20712;-72
2021/12/20 07:52:19;;;;;;;18.40;14.60;;;6.10;97.20;;;;;;1707208;29;20217;-72
2021/12/20 07:53:11;;;;;;;18.30;14.33;;;6.20;97.20;;;;;;1707113;28;20241;-72
2021/12/20 07:54:02;;;;;;;19.75;15.48;;;6.10;97.20;;;;;;1707251;29;20681;-71
2021/12/20 07:54:54;;;;;;;18.33;14.80;;;6.20;97.20;;;;;;1709088;28;20197;-72
2021/12/20 07:55:45;;;;;;;16.88;14.40;;;6.20;97.20;;;;;;1713901;28;20465;-72
2021/12/20 07:56:37;;;;;;;19.77;15.77;;;6.20;97.20;;;;;;1713902;28;20300;-71
2021/12/20 07:57:28;;;;;;;17.88;15.38;;;6.20;97.20;;;;;;1713820;28;20482;-71
2021/12/20 07:58:20;;;;;;;18.53;15.20;;;6.20;97.20;;;;;;1713902;28;20222;-72
2021/12/20 07:59:11;;;;;;;21.33;16.50;;;6.20;97.20;;;;;;1713620;28;20895;-72
2021/12/20 08:00:04;;;;;;;17.03;14.37;;;6.30;97.20;;;;;;1713645;28;20585;-72
2021/12/20 08:00:55;;;;;;;18.45;15.32;;;6.30;97.20;;;;;;1713551;28;20278;-72
2021/12/20 08:01:47;;;;;;;20.90;15.47;;;6.30;97.20;;;;;;1713757;28;20209;-71
2021/12/20 08:02:38;;;;;;;17.63;15.40;;;6.30;97.20;;;;;;1713806;28;20252;-71
2021/12/20 08:03:30;;;;;;;18.40;15.40;;;6.30;97.20;;;;;;1713865;28;20202;-72
2021/12/20 08:04:23;;;;;;;18.38;14.48;;;6.30;97.20;;;;;;1713718;28;20453;-72
2021/12/20 08:05:15;;;;;;;17.70;14.52;;;6.30;97.20;;;;;;1713768;28;20665;-72
2021/12/20 08:06:08;;;;;;;18.38;14.95;;;6.30;97.20;;;;;;1713826;28;20325;-71
2021/12/20 08:06:59;;;;;;;18.77;15.50;;;6.40;97.20;;;;;;1713801;28;20218;-71
2021/12/20 08:07:51;;;;;;;17.52;15.07;;;6.40;97.20;;;;;;1713747;28;20626;-72
2021/12/20 08:08:42;;;;;;;17.52;14.65;;;6.40;97.20;;;;;;1713600;28;20209;-72
2021/12/20 08:09:33;;;;;;;17.60;14.37;;;6.40;97.20;;;;;;1711209;28;20285;-70
2021/12/20 08:10:27;;;;;;;18.48;15.20;;;6.40;97.20;;;;;;1707038;28;20203;-72
2021/12/20 08:11:18;;;;;;;16.50;14.50;;;6.40;97.20;;;;;;1700505;29;20678;-70
2021/12/20 08:12:10;;;;;;;17.35;15.18;;;6.30;97.20;;;;;;1700455;29;20257;-71
2021/12/20 08:13:02;;;;;;;18.23;16.17;;;6.30;97.20;;;;;;1700497;29;20615;-70
2021/12/20 08:13:52;;;;;;;16.13;14.40;;;6.30;97.20;;;;;;1700472;29;20207;-70
2021/12/20 08:14:44;;;;;;;21.17;16.33;;;6.40;97.20;;;;;;1700569;29;20217;-71
2021/12/20 08:15:36;;;;;;;22.45;18.20;;;6.40;97.20;;;;;;1700580;29;20709;-70
2021/12/20 08:16:26;;;;;;;22.80;17.85;;;6.40;97.20;;;;;;1700707;29;20640;-71
2021/12/20 08:17:18;;;;;;;21.30;17.40;;;6.40;97.20;;;;;;1701867;29;20217;-70
2021/12/20 08:18:09;;;;;;;20.08;17.38;;;6.40;97.20;;;;;;1701876;29;20581;-70
2021/12/20 08:19:01;;;;;;;21.37;18.00;;;6.40;97.20;;;;;;1701567;29;20572;-71
2021/12/20 08:19:53;;;;;;;21.38;17.35;;;6.40;97.20;;;;;;1701814;29;20581;-71
2021/12/20 08:20:44;;;;;;;23.10;18.65;;;6.40;97.20;;;;;;1701810;29;20269;-71
2021/12/20 08:21:35;;;;;;;21.45;16.45;;;6.40;97.20;;;;;;1701798;29;20207;-71
2021/12/20 08:22:27;;;;;;;21.87;17.07;;;6.40;97.20;;;;;;1701900;29;20202;-71
2021/12/20 08:23:18;;;;;;;21.98;17.23;;;6.30;97.20;;;;;;1701808;29;20214;-72
2021/12/20 08:24:10;;;;;;;21.95;17.75;;;6.30;97.20;;;;;;1701848;29;20234;-71
2021/12/20 08:25:01;;;;;;;22.17;18.38;;;6.30;97.20;;;;;;1701828;29;20203;-71
2021/12/20 08:25:52;;;;;;;24.88;17.08;;;6.30;97.20;;;;;;1713637;28;20200;-72
2021/12/20 08:26:44;;;;;;;23.48;18.83;;;6.30;97.20;;;;;;1715071;28;20233;-70
2021/12/20 08:27:36;;;;;;;20.45;16.90;;;6.30;97.20;;;;;;1714719;28;20186;-71
2021/12/20 08:28:27;;;;;;;23.88;18.65;;;6.30;97.20;;;;;;1714724;28;20240;-71
2021/12/20 08:29:18;;;;;;;22.73;18.60;;;6.30;97.20;;;;;;1714808;28;20213;-72
2021/12/20 08:30:10;;;;;;;21.10;17.13;;;6.30;97.20;;;;;;1714987;28;20692;-72
2021/12/20 08:31:02;;;;;;;21.33;17.60;;;6.30;97.20;;;;;;1715041;28;20206;-72
2021/12/20 08:31:54;;;;;;;19.88;16.65;;;6.30;97.20;;;;;;1714920;28;20232;-71
2021/12/20 08:32:46;;;;;;;21.38;17.15;;;6.30;97.20;;;;;;1715077;28;20273;-71
2021/12/20 08:33:38;;;;;;;22.50;17.60;;;6.30;97.20;;;;;;1714962;28;20257;-71
2021/12/20 08:34:30;;;;;;;19.98;17.08;;;6.30;97.20;;;;;;1715055;28;20257;-71
2021/12/20 08:35:24;;;;;;;25.42;16.98;;;6.30;97.20;;;;;;1715030;28;20622;-71
2021/12/20 08:36:14;;;;;;;20.33;17.80;;;6.40;97.20;;;;;;1714982;28;20214;-71
2021/12/20 08:37:06;;;;;;;20.13;16.50;;;6.30;97.20;;;;;;1715051;28;20280;-71
2021/12/20 08:37:58;;;;;;;24.05;17.35;;;6.40;97.20;;;;;;1715067;28;20213;-70
2021/12/20 08:38:50;;;;;;;20.00;17.10;;;6.40;97.20;;;;;;1714816;28;20213;-72
2021/12/20 08:39:40;;;;;;;20.10;16.85;;;6.40;97.20;;;;;;1714997;28;20250;-72
2021/12/20 08:40:32;;;;;;;20.30;15.90;;;6.40;97.20;;;;;;1714833;28;20233;-70
2021/12/20 08:41:23;;;;;;;19.83;16.60;;;6.40;97.20;;;;;;1714994;28;20237;-70
2021/12/20 08:42:15;;;;;;;17.57;15.23;;;6.40;97.20;;;;;;1714671;28;20204;-72
2021/12/20 08:43:06;;;;;;;18.85;16.23;;;6.40;97.20;;;;;;1708416;28;20530;-70
2021/12/20 08:43:57;;;;;;;18.40;16.10;;;6.40;97.20;;;;;;1708295;29;20658;-71
2021/12/20 08:44:49;;;;;;;19.33;16.08;;;6.40;97.20;;;;;;1708290;29;20206;-71
2021/12/20 08:45:41;;;;;;;18.40;15.98;;;6.40;97.20;;;;;;1708292;29;20206;-70
2021/12/20 08:46:32;;;;;;;17.92;15.85;;;6.40;97.20;;;;;;1708399;28;20237;-70
2021/12/20 08:47:24;;;;;;;18.43;15.60;;;6.40;97.20;;;;;;1708356;29;20210;-71
2021/12/20 08:48:15;;;;;;;17.17;15.25;;;6.50;97.20;;;;;;1708366;29;20202;-71
2021/12/20 08:49:08;;;;;;;19.98;15.95;;;6.50;97.20;;;;;;1708021;29;20209;-71
2021/12/20 08:49:59;;;;;;;18.52;15.35;;;6.50;97.20;;;;;;1708284;29;20553;-71
2021/12/20 08:50:53;;;;;;;18.25;14.93;;;6.50;97.20;;;;;;1708146;29;20218;-70
2021/12/20 08:51:46;;;;;;;18.23;15.57;;;6.50;97.20;;;;;;1708240;29;20206;-71
2021/12/20 08:52:37;;;;;;;18.60;14.95;;;6.50;97.20;;;;;;1708313;29;20586;-72
2021/12/20 08:53:29;;;;;;;19.77;15.20;;;6.50;97.20;;;;;;1708222;28;20316;-71
2021/12/20 08:54:20;;;;;;;18.70;15.10;;;6.40;97.20;;;;;;1708292;29;20237;-72
2021/12/20 08:55:11;;;;;;;20.63;15.50;;;6.40;97.20;;;;;;1708263;29;20209;-71
2021/12/20 08:56:04;;;;;;;17.42;14.27;;;6.40;97.20;;;;;;1708311;29;20482;-70
2021/12/20 08:56:55;;;;;;;17.48;14.80;;;6.30;97.20;;;;;;1708222;28;20262;-72
2021/12/20 08:57:48;;;;;;;19.80;15.57;;;6.30;97.20;;;;;;1708271;28;20199;-72
2021/12/20 08:58:39;;;;;;;16.45;14.70;;;6.30;97.20;;;;;;1707905;29;20218;-72
2021/12/20 08:59:31;;;;;;;18.00;14.70;;;6.30;97.20;;;;;;1711417;28;20193;-71
2021/12/20 09:00:24;;;;;;;19.33;15.48;;;6.30;97.20;;;;;;1714630;28;20653;-71
2021/12/20 09:01:17;;;;;;;18.67;16.15;;;6.30;97.20;;;;;;1714884;28;20201;-71
2021/12/20 09:02:09;;;;;;;19.55;15.75;;;6.30;97.20;;;;;;1714816;28;20210;-71
2021/12/20 09:03:02;;;;;;;21.77;16.42;;;6.30;97.20;;;;;;1714889;28;20304;-71
2021/12/20 09:03:53;;;;;;;19.88;16.10;;;6.30;97.20;;;;;;1714824;28;20201;-71
2021/12/20 09:04:45;;;;;;;18.43;15.67;;;6.30;97.20;;;;;;1714875;28;20206;-71
2021/12/20 09:05:36;;;;;;;18.65;16.30;;;6.30;97.20;;;;;;1714881;28;20202;-71
2021/12/20 09:06:30;;;;;;;19.73;15.70;;;6.30;97.20;;;;;;1714858;28;20241;-72
2021/12/20 09:07:21;;;;;;;19.98;15.63;;;6.20;97.20;;;;;;1714875;28;20288;-72
2021/12/20 09:08:15;;;;;;;19.30;15.70;;;6.20;97.20;;;;;;1714800;28;20249;-71
2021/12/20 09:09:07;;;;;;;18.30;14.93;;;6.20;97.20;;;;;;1714622;28;20256;-71
2021/12/20 09:09:58;;;;;;;20.13;16.10;;;6.30;97.20;;;;;;1714783;28;20217;-72
2021/12/20 09:10:49;;;;;;;19.85;16.17;;;6.20;97.20;;;;;;1714773;28;20237;-71
2021/12/20 09:11:41;;;;;;;18.67;15.63;;;6.30;97.20;;;;;;1714854;28;20201;-71
2021/12/20 09:12:32;;;;;;;18.42;15.77;;;6.20;97.20;;;;;;1714767;28;20201;-72
2021/12/20 09:13:24;;;;;;;20.77;16.73;;;6.30;97.20;;;;;;1714720;28;20201;-72
2021/12/20 09:14:15;;;;;;;22.05;15.77;;;6.30;97.20;;;;;;1714729;28;20293;-71
2021/12/20 09:15:09;;;;;;;22.48;16.92;;;6.30;97.20;;;;;;1714879;28;20212;-71
2021/12/20 09:16:00;;;;;;;18.70;16.73;;;6.30;97.20;;;;;;1714202;28;20206;-71
2021/12/20 09:16:52;;;;;;;19.98;15.38;;;6.30;97.20;;;;;;1708148;29;20249;-70
2021/12/20 09:17:43;;;;;;;20.92;16.48;;;6.40;97.20;;;;;;1708169;28;20217;-71
2021/12/20 09:18:35;;;;;;;21.42;17.05;;;6.40;97.20;;;;;;1708097;28;20685;-70
2021/12/20 09:19:26;;;;;;;18.67;16.35;;;6.40;97.20;;;;;;1707867;29;20233;-70
2021/12/20 09:20:21;;;;;;;20.60;16.87;;;6.40;97.20;;;;;;1708007;29;20213;-71
2021/12/20 09:21:12;;;;;;;19.70;17.02;;;6.40;97.20;;;;;;1708253;28;20550;-72
2021/12/20 09:22:06;;;;;;;21.00;17.95;;;6.50;97.20;;;;;;1708175;28;20313;-71
2021/12/20 09:23:02;;;;;;;20.27;17.50;;;6.50;97.20;;;;;;1708085;29;20264;-72
2021/12/20 09:23:55;;;;;;;19.80;17.67;;;6.50;97.20;;;;;;1708150;29;20195;-71
2021/12/20 09:24:46;;;;;;;21.48;18.80;;;6.50;97.20;;;;;;1708205;29;20218;-72
2021/12/20 09:25:41;;;;;;;21.57;16.50;;;6.50;97.20;;;;;;1708113;29;20206;-71
2021/12/20 09:26:32;;;;;;;21.95;18.50;;;6.50;97.20;;;;;;1708074;29;20245;-71
2021/12/20 09:27:24;;;;;;;21.75;17.75;;;6.50;97.20;;;;;;1708106;29;20607;-71
2021/12/20 09:28:15;;;;;;;23.60;18.73;;;6.60;97.20;;;;;;1706954;28;20202;-71
2021/12/20 09:29:07;;;;;;;23.33;19.10;;;6.60;97.20;;;;;;1707736;29;20624;-72
2021/12/20 09:29:57;;;;;;;22.65;18.25;;;6.60;97.20;;;;;;1707943;29;20214;-73
2021/12/20 09:30:49;;;;;;;20.93;18.07;;;6.60;97.20;;;;;;1707965;28;20227;-71
2021/12/20 09:31:40;;;;;;;21.30;17.52;;;6.60;97.20;;;;;;1708073;29;20198;-72
2021/12/20 09:32:32;;;;;;;23.80;19.23;;;6.60;97.20;;;;;;1708022;28;20194;-71
2021/12/20 09:33:24;;;;;;;22.83;18.33;;;6.60;97.20;;;;;;1708885;28;20446;-71
2021/12/20 09:34:15;;;;;;;26.85;19.17;;;6.70;97.20;;;;;;1707976;28;20262;-71
2021/12/20 09:35:07;;;;;;;23.17;18.55;;;6.70;97.20;;;;;;1707978;29;20206;-72
2021/12/20 09:35:59;;;;;;;23.52;19.17;;;6.70;97.20;;;;;;1707967;29;20286;-72
2021/12/20 09:36:52;;;;;;;24.23;18.40;;;6.70;97.20;;;;;;1708025;28;20237;-71
2021/12/20 09:37:49;;;;;;;23.77;17.35;;;6.70;97.20;;;;;;1708004;29;20210;-71
2021/12/20 09:38:40;;;;;;;23.73;17.55;;;6.70;97.20;;;;;;1707805;29;20214;-72
2021/12/20 09:39:32;;;;;;;20.50;16.83;;;6.70;97.20;;;;;;1708068;29;20206;-71
2021/12/20 09:40:32;;;;;;;22.80;18.63;;;6.70;97.20;;;;;;1707951;29;20265;-71
2021/12/20 09:42:35;;;;;;;26.20;19.55;;;6.80;97.20;;;;;;1707123;28;20632;-71
2021/12/20 09:43:27;;;;;;;22.30;17.40;;;6.80;97.20;;;;;;1707968;29;20226;-72
2021/12/20 09:44:23;;;;;;;20.35;17.45;;;6.90;97.20;;;;;;1707817;29;20253;-71
2021/12/20 09:45:18;;;;;;;23.48;18.40;;;6.90;97.20;;;;;;1708002;29;20206;-71
2021/12/20 09:46:09;;;;;;;21.88;17.58;;;6.90;97.20;;;;;;1708022;29;20557;-71
2021/12/20 09:47:03;;;;;;;20.53;17.27;;;6.90;97.20;;;;;;1708012;29;20224;-71
2021/12/20 09:47:53;;;;;;;25.00;18.63;;;6.90;97.20;;;;;;1707858;29;20465;-70
2021/12/20 09:48:47;;;;;;;22.00;18.03;;;7.00;97.20;;;;;;1707829;29;20285;-71
2021/12/20 09:49:39;;;;;;;19.90;17.42;;;7.00;97.20;;;;;;1707669;28;20530;-71
2021/12/20 09:50:29;;;;;;;22.75;17.17;;;7.00;97.20;;;;;;1707731;28;20234;-71
2021/12/20 09:51:21;;;;;;;24.73;17.77;;;7.00;97.20;;;;;;1707969;29;20199;-71
2021/12/20 09:52:13;;;;;;;22.90;18.63;;;7.10;97.20;;;;;;1707890;29;20938;-70
2021/12/20 09:53:07;;;;;;;24.17;18.02;;;7.10;97.20;;;;;;1708053;28;20244;-70
2021/12/20 09:53:59;;;;;;;26.08;18.80;;;7.10;97.20;;;;;;1707781;29;20288;-71
2021/12/20 09:54:51;;;;;;;22.70;17.02;;;7.10;97.20;;;;;;1707828;29;20206;-70
2021/12/20 09:55:45;;;;;;;23.77;18.83;;;7.10;97.20;;;;;;1707935;29;20641;-71
2021/12/20 09:56:40;;;;;;;23.40;17.85;;;7.10;97.20;;;;;;1707867;29;20198;-71
2021/12/20 09:57:32;;;;;;;30.15;18.42;;;7.20;97.20;;;;;;1707799;29;20206;-71
2021/12/20 09:58:26;;;;;;;22.90;19.10;;;7.20;97.20;;;;;;1707853;29;20210;-72
2021/12/20 09:59:20;;;;;;;21.73;18.42;;;7.20;97.20;;;;;;1707573;29;20702;-71
2021/12/20 10:00:14;;;;;;;24.30;19.05;;;7.20;97.20;;;;;;1707806;29;20586;-71
2021/12/20 10:01:06;;;;;;;24.65;18.42;;;7.20;97.20;;;;;;1707797;28;20218;-71
2021/12/20 10:01:59;;;;;;;26.20;18.83;;;7.20;97.20;;;;;;1713483;28;20273;-71
2021/12/20 10:02:50;;;;;;;21.67;17.65;;;7.20;97.20;;;;;;1714411;28;20225;-71
2021/12/20 10:03:44;;;;;;;27.33;18.60;;;7.20;97.20;;;;;;1714509;28;20237;-71
2021/12/20 10:04:35;;;;;;;24.48;19.02;;;7.20;97.20;;;;;;1714352;28;20198;-71
2021/12/20 10:05:27;;;;;;;23.42;19.02;;;7.30;97.20;;;;;;1714485;28;20234;-70
2021/12/20 10:06:19;;;;;;;26.38;20.38;;;7.30;97.20;;;;;;1714459;28;20262;-70
2021/12/20 10:07:12;;;;;;;24.63;19.23;;;7.20;97.20;;;;;;1714491;28;20623;-70
2021/12/20 10:08:13;;;;;;;24.63;19.50;;;7.30;97.20;;;;;;1714542;28;20661;-70
2021/12/20 10:09:11;;;;;;;26.45;19.70;;;7.30;97.20;;;;;;1714236;28;20221;-71
2021/12/20 10:10:05;;;;;;;26.63;19.45;;;7.20;97.20;;;;;;1712706;28;20277;-72
2021/12/20 10:10:58;;;;;;;23.95;19.25;;;7.20;97.20;;;;;;1714298;28;20226;-71
2021/12/20 10:11:50;;;;;;;26.85;20.48;;;7.30;97.20;;;;;;1714468;28;20728;-72
2021/12/20 10:12:48;;;;;;;22.90;19.80;;;7.20;97.20;;;;;;1714493;28;20198;-71
2021/12/20 10:13:40;;;;;;;26.08;19.88;;;7.20;97.20;;;;;;1714524;28;20777;-71
2021/12/20 10:14:30;;;;;;;27.45;20.77;;;7.20;97.20;;;;;;1714359;28;20222;-70
2021/12/20 10:15:22;;;;;;;26.37;20.50;;;7.20;97.20;;;;;;1714419;28;20205;-71
2021/12/20 10:16:15;;;;;;;25.63;19.25;;;7.20;97.20;;;;;;1711323;28;20226;-72
2021/12/20 10:17:07;;;;;;;26.23;20.25;;;7.20;97.20;;;;;;1707792;29;20584;-72
2021/12/20 10:17:59;;;;;;;25.33;19.88;;;7.30;97.20;;;;;;1707762;29;20244;-71
2021/12/20 10:18:51;;;;;;;28.60;21.15;;;7.30;97.20;;;;;;1707459;29;20285;-71
2021/12/20 10:19:42;;;;;;;27.33;20.67;;;7.30;97.20;;;;;;1707793;29;20273;-71
2021/12/20 10:20:37;;;;;;;26.50;19.58;;;7.30;97.20;;;;;;1707615;28;20222;-71
2021/12/20 10:21:36;;;;;;;29.58;20.42;;;7.30;97.20;;;;;;1707746;29;20247;-71
2021/12/20 10:22:30;;;;;;;24.02;19.48;;;7.30;97.20;;;;;;1707735;29;20199;-72
2021/12/20 10:23:25;;;;;;;24.08;18.90;;;7.30;97.20;;;;;;1707740;29;20296;-71
2021/12/20 10:24:29;;;;;;;27.75;21.15;;;7.30;97.20;;;;;;1707623;29;20198;-70
2021/12/20 10:25:27;;;;;;;25.05;19.25;;;7.30;97.20;;;;;;1707793;28;20731;-71
2021/12/20 10:26:20;;;;;;;24.02;19.23;;;7.30;97.20;;;;;;1707807;29;20203;-71
2021/12/20 10:27:27;;;;;;;26.15;19.30;;;7.30;97.20;;;;;;1707588;29;20214;-71
2021/12/20 10:28:22;;;;;;;24.75;19.98;;;7.30;97.20;;;;;;1707611;29;20199;-71